createdAt,value
2017-10-22T00:00:18.469Z,76.7
2017-10-22T00:01:20.862Z,76.8
2017-10-22T00:02:23.235Z,76.9
2017-10-22T00:03:25.604Z,77
2017-10-22T00:04:27.994Z,77.2
2017-10-22T00:05:30.375Z,77.4
2017-10-22T00:06:32.748Z,77.6
2017-10-22T00:07:35.135Z,77.8
2017-10-22T00:08:37.516Z,78
2017-10-22T00:09:39.884Z,78.2
2017-10-22T00:10:42.274Z,78.4
2017-10-22T00:11:44.992Z,78.6
2017-10-22T00:12:47.718Z,78.6
2017-10-22T00:13:50.455Z,78.8
2017-10-22T00:14:52.825Z,79.1
2017-10-22T00:15:55.199Z,79.2
2017-10-22T00:16:57.580Z,79.3
2017-10-22T00:17:59.957Z,79.5
2017-10-22T00:19:02.325Z,79.6
2017-10-22T00:20:04.701Z,79.8
2017-10-22T00:21:07.073Z,80
2017-10-22T00:22:09.456Z,80.2
2017-10-22T00:23:11.832Z,80.2
2017-10-22T00:24:14.567Z,80.2
2017-10-22T00:25:17.284Z,80.4
2017-10-22T00:26:19.674Z,80.6
2017-10-22T00:27:22.054Z,80.9
2017-10-22T00:28:24.419Z,81
2017-10-22T00:29:26.797Z,81.3
2017-10-22T00:30:29.169Z,81.6
2017-10-22T00:31:31.571Z,81.9
2017-10-22T00:32:34.303Z,82.1
2017-10-22T00:33:36.683Z,82.2
2017-10-22T00:34:39.059Z,82.5
2017-10-22T00:35:41.443Z,82.7
2017-10-22T00:36:43.821Z,82.9
2017-10-22T00:37:46.195Z,83.4
2017-10-22T00:38:48.567Z,83.7
2017-10-22T00:39:50.956Z,84.1
2017-10-22T00:40:53.355Z,84.3
2017-10-22T00:41:55.725Z,84.8
2017-10-22T00:42:58.094Z,85.2
2017-10-22T00:44:00.467Z,85.6
2017-10-22T00:45:02.838Z,86
2017-10-22T00:46:05.220Z,86.3
2017-10-22T00:47:07.585Z,86.5
2017-10-22T00:48:09.970Z,86.7
2017-10-22T00:49:12.702Z,87
2017-10-22T00:50:15.076Z,87.3
2017-10-22T00:51:18.151Z,87.7
2017-10-22T00:52:20.538Z,88.1
2017-10-22T00:53:22.903Z,88.4
2017-10-22T00:54:25.307Z,88.9
2017-10-22T00:55:27.656Z,89.2
2017-10-22T00:56:30.036Z,89.6
2017-10-22T00:57:32.420Z,90
2017-10-22T00:58:34.805Z,90
2017-10-22T00:59:37.166Z,90.1
2017-10-22T01:00:39.902Z,90.2
2017-10-22T01:01:42.285Z,90.2
2017-10-22T01:02:44.651Z,90.2
2017-10-22T01:03:47.040Z,90.3
2017-10-22T01:04:49.420Z,90.3
2017-10-22T01:05:51.818Z,90.3
2017-10-22T01:06:54.184Z,90.3
2017-10-22T01:07:56.564Z,90.3
2017-10-22T01:08:58.941Z,90.4
2017-10-22T01:10:01.322Z,90.4
2017-10-22T01:11:03.691Z,90.5
2017-10-22T01:12:06.068Z,90.5
2017-10-22T01:13:08.445Z,90.5
2017-10-22T01:14:10.817Z,90.5
2017-10-22T01:15:13.203Z,90.5
2017-10-22T01:16:15.581Z,90.5
2017-10-22T01:17:17.971Z,90.6
2017-10-22T01:18:20.336Z,90.6
2017-10-22T01:19:22.709Z,90.7
2017-10-22T01:20:25.101Z,90.7
2017-10-22T01:21:27.467Z,90.8
2017-10-22T01:22:29.839Z,90.8
2017-10-22T01:23:32.227Z,90.8
2017-10-22T01:24:34.594Z,90.9
2017-10-22T01:25:36.980Z,90.8
2017-10-22T01:26:39.357Z,90.8
2017-10-22T01:27:41.728Z,90.8
2017-10-22T01:28:44.108Z,90.8
2017-10-22T01:29:46.484Z,90.8
2017-10-22T01:30:48.856Z,90.8
2017-10-22T01:31:51.234Z,90.8
2017-10-22T01:32:53.954Z,90.8
2017-10-22T01:33:56.330Z,90.8
2017-10-22T01:34:58.742Z,90.9
2017-10-22T01:36:01.446Z,90.9
2017-10-22T01:37:03.833Z,90.9
2017-10-22T01:38:06.209Z,90.9
2017-10-22T01:39:08.581Z,91
2017-10-22T01:40:11.317Z,90.9
2017-10-22T01:41:13.686Z,90.9
2017-10-22T01:42:16.056Z,91
2017-10-22T01:43:18.448Z,91
2017-10-22T01:44:20.812Z,91.1
2017-10-22T01:45:23.196Z,91.1
2017-10-22T01:46:25.568Z,91.2
2017-10-22T01:47:27.942Z,91.1
2017-10-22T01:48:30.313Z,91.2
2017-10-22T01:49:32.686Z,91.1
2017-10-22T01:50:35.057Z,91.1
2017-10-22T01:51:37.440Z,91.1
2017-10-22T01:52:39.810Z,91.2
2017-10-22T01:53:42.181Z,91.2
2017-10-22T01:54:44.562Z,91.3
2017-10-22T01:55:46.966Z,91.2
2017-10-22T01:56:49.704Z,91.2
2017-10-22T01:57:52.081Z,91.2
2017-10-22T01:58:54.451Z,91.3
2017-10-22T01:59:56.828Z,91.2
2017-10-22T02:00:59.207Z,91.3
2017-10-22T02:02:01.589Z,91.3
2017-10-22T02:03:03.961Z,91.3
2017-10-22T02:04:06.335Z,91.3
2017-10-22T02:05:08.714Z,91.3
2017-10-22T02:06:11.096Z,91.3
2017-10-22T02:07:13.452Z,91.3
2017-10-22T02:08:16.192Z,91.3
2017-10-22T02:09:18.568Z,91.4
2017-10-22T02:10:20.937Z,91.4
2017-10-22T02:11:23.319Z,91.3
2017-10-22T02:12:25.699Z,91.3
2017-10-22T02:13:28.422Z,91.3
2017-10-22T02:14:30.809Z,91.3
2017-10-22T02:15:33.185Z,91.3
2017-10-22T02:16:35.554Z,91.3
2017-10-22T02:17:37.936Z,91.3
2017-10-22T02:18:40.307Z,91.2
2017-10-22T02:19:42.688Z,91.1
2017-10-22T02:20:45.069Z,91.1
2017-10-22T02:21:47.800Z,91.2
2017-10-22T02:22:50.174Z,91.2
2017-10-22T02:23:52.550Z,91.2
2017-10-22T02:24:54.932Z,91.1
2017-10-22T02:25:57.314Z,91.2
2017-10-22T02:26:59.679Z,91.1
2017-10-22T02:28:02.401Z,91.1
2017-10-22T02:29:04.774Z,91.1
2017-10-22T02:30:07.503Z,91.1
2017-10-22T02:31:10.243Z,91.1
2017-10-22T02:32:12.616Z,91.1
2017-10-22T02:33:14.985Z,91.1
2017-10-22T02:34:17.364Z,91.1
2017-10-22T02:35:19.736Z,91.1
2017-10-22T02:36:22.119Z,91.1
2017-10-22T02:37:24.498Z,91.1
2017-10-22T02:38:26.873Z,91.1
2017-10-22T02:39:29.246Z,91.1
2017-10-22T02:40:31.630Z,91.1
2017-10-22T02:41:33.999Z,91.1
2017-10-22T02:42:36.385Z,91.1
2017-10-22T02:43:38.766Z,91.1
2017-10-22T02:44:41.137Z,91.1
2017-10-22T02:45:43.904Z,91.1
2017-10-22T02:46:46.276Z,91.1
2017-10-22T02:47:48.657Z,91
2017-10-22T02:48:51.030Z,91
2017-10-22T02:49:53.405Z,91
2017-10-22T02:50:55.794Z,90.9
2017-10-22T02:51:58.168Z,90.9
2017-10-22T02:53:00.544Z,90.9
2017-10-22T02:54:02.920Z,90.9
2017-10-22T02:55:05.293Z,90.9
2017-10-22T02:56:07.671Z,90.9
2017-10-22T02:57:10.047Z,90.9
2017-10-22T02:58:12.410Z,90.9
2017-10-22T02:59:14.790Z,90.9
2017-10-22T03:00:17.190Z,90.9
2017-10-22T03:01:19.553Z,90.9
2017-10-22T03:02:21.917Z,90.9
2017-10-22T03:03:24.292Z,90.9
2017-10-22T03:04:27.014Z,90.9
2017-10-22T03:05:29.403Z,90.9
2017-10-22T03:06:32.125Z,90.9
2017-10-22T03:07:34.496Z,90.9
2017-10-22T03:08:36.877Z,91
2017-10-22T03:09:39.261Z,90.9
2017-10-22T03:10:41.639Z,90.9
2017-10-22T03:11:44.020Z,91
2017-10-22T03:12:46.385Z,91.1
2017-10-22T03:13:48.756Z,91
2017-10-22T03:14:51.150Z,91
2017-10-22T03:15:53.862Z,91.1
2017-10-22T03:16:56.250Z,91.1
2017-10-22T03:17:58.973Z,91
2017-10-22T03:19:01.352Z,91
2017-10-22T03:20:03.727Z,91
2017-10-22T03:21:06.100Z,91
2017-10-22T03:22:08.475Z,91.1
2017-10-22T03:23:10.855Z,91
2017-10-22T03:24:13.213Z,91.1
2017-10-22T03:25:15.588Z,91
2017-10-22T03:26:17.961Z,91
2017-10-22T03:27:20.686Z,91
2017-10-22T03:28:23.068Z,91
2017-10-22T03:29:25.443Z,91
2017-10-22T03:30:27.815Z,90.9
2017-10-22T03:31:30.200Z,91
2017-10-22T03:32:32.571Z,91
2017-10-22T03:33:34.944Z,90.9
2017-10-22T03:34:37.324Z,91
2017-10-22T03:35:39.701Z,90.9
2017-10-22T03:36:42.075Z,90.9
2017-10-22T03:37:44.462Z,90.9
2017-10-22T03:38:46.819Z,91
2017-10-22T03:39:49.191Z,91
2017-10-22T03:40:51.573Z,91
2017-10-22T03:41:53.939Z,91
2017-10-22T03:42:56.319Z,91
2017-10-22T03:43:58.694Z,91.1
2017-10-22T03:45:01.069Z,91
2017-10-22T03:46:04.145Z,91.1
2017-10-22T03:47:06.517Z,91.1
2017-10-22T03:48:08.908Z,91.1
2017-10-22T03:49:11.279Z,91.1
2017-10-22T03:50:13.662Z,91.1
2017-10-22T03:51:16.027Z,91.1
2017-10-22T03:52:18.747Z,91.1
2017-10-22T03:53:21.130Z,91
2017-10-22T03:54:23.504Z,91.1
2017-10-22T03:55:26.222Z,91.1
2017-10-22T03:56:28.598Z,91.1
2017-10-22T03:57:30.968Z,91.1
2017-10-22T03:58:33.346Z,91.2
2017-10-22T03:59:35.723Z,91.3
2017-10-22T04:00:38.096Z,91.3
2017-10-22T04:01:40.459Z,91.3
2017-10-22T04:02:42.841Z,91.3
2017-10-22T04:03:45.219Z,91.3
2017-10-22T04:04:47.630Z,91.2
2017-10-22T04:05:50.006Z,91.2
2017-10-22T04:06:52.408Z,91.2
2017-10-22T04:07:55.130Z,91.2
2017-10-22T04:08:57.507Z,91.2
2017-10-22T04:09:59.872Z,91.2
2017-10-22T04:11:02.241Z,91.2
2017-10-22T04:12:04.615Z,91.3
2017-10-22T04:13:07.372Z,91.2
2017-10-22T04:14:09.739Z,91.2
2017-10-22T04:15:12.111Z,91.3
2017-10-22T04:16:14.488Z,91.3
2017-10-22T04:17:16.858Z,91.4
2017-10-22T04:18:19.240Z,91.4
2017-10-22T04:19:21.664Z,91.4
2017-10-22T04:20:24.041Z,91.4
2017-10-22T04:21:26.761Z,91.4
2017-10-22T04:22:29.148Z,91.4
2017-10-22T04:23:31.516Z,91.4
2017-10-22T04:24:33.917Z,91.4
2017-10-22T04:25:36.279Z,91.4
2017-10-22T04:26:38.647Z,91.5
2017-10-22T04:27:41.025Z,91.4
2017-10-22T04:28:43.410Z,91.4
2017-10-22T04:29:46.122Z,91.5
2017-10-22T04:30:48.493Z,91.4
2017-10-22T04:31:50.873Z,91.4
2017-10-22T04:32:53.247Z,91.5
2017-10-22T04:33:55.626Z,91.5
2017-10-22T04:34:58.005Z,91.5
2017-10-22T04:36:00.366Z,91.5
2017-10-22T04:37:02.750Z,91.6
2017-10-22T04:38:05.112Z,91.6
2017-10-22T04:39:07.489Z,91.6
2017-10-22T04:40:09.859Z,91.6
2017-10-22T04:41:12.234Z,91.6
2017-10-22T04:42:14.605Z,91.6
2017-10-22T04:43:16.998Z,91.7
2017-10-22T04:44:19.366Z,91.7
2017-10-22T04:45:21.744Z,91.6
2017-10-22T04:46:24.105Z,91.6
2017-10-22T04:47:26.497Z,91.6
2017-10-22T04:48:29.564Z,91.6
2017-10-22T04:49:31.929Z,91.5
2017-10-22T04:50:34.322Z,91.6
2017-10-22T04:51:36.679Z,91.6
2017-10-22T04:52:39.054Z,91.6
2017-10-22T04:53:41.436Z,91.6
2017-10-22T04:54:43.807Z,91.6
2017-10-22T04:55:46.175Z,91.6
2017-10-22T04:56:48.557Z,91.6
2017-10-22T04:57:50.925Z,91.6
2017-10-22T04:58:53.301Z,91.6
2017-10-22T04:59:55.671Z,91.6
2017-10-22T05:00:58.050Z,91.7
2017-10-22T05:02:00.443Z,91.6
2017-10-22T05:03:02.810Z,91.6
2017-10-22T05:04:05.179Z,91.6
2017-10-22T05:05:07.551Z,91.6
2017-10-22T05:06:09.924Z,91.6
2017-10-22T05:07:12.297Z,91.5
2017-10-22T05:08:14.673Z,91.5
2017-10-22T05:09:17.037Z,91.6
2017-10-22T05:10:19.409Z,91.4
2017-10-22T05:11:21.795Z,91.4
2017-10-22T05:12:24.166Z,91.4
2017-10-22T05:13:26.548Z,91.5
2017-10-22T05:14:29.268Z,91.4
2017-10-22T05:15:31.640Z,91.5
2017-10-22T05:16:34.018Z,92
2017-10-22T05:17:36.385Z,92.1
2017-10-22T05:18:38.754Z,91.8
2017-10-22T05:19:41.139Z,91.7
2017-10-22T05:20:43.509Z,91.7
2017-10-22T05:21:45.883Z,91.7
2017-10-22T05:22:48.249Z,91.8
2017-10-22T05:23:50.617Z,91.6
2017-10-22T05:24:52.992Z,91.6
2017-10-22T05:25:55.368Z,91.6
2017-10-22T05:26:57.732Z,91.6
2017-10-22T05:28:00.101Z,91.6
2017-10-22T05:29:02.485Z,91.6
2017-10-22T05:30:04.850Z,91.6
2017-10-22T05:31:07.225Z,91.6
2017-10-22T05:32:09.593Z,91.6
2017-10-22T05:33:11.968Z,91.5
2017-10-22T05:34:14.342Z,91.5
2017-10-22T05:35:16.713Z,91.6
2017-10-22T05:36:19.085Z,91.6
2017-10-22T05:37:21.467Z,91.6
2017-10-22T05:38:23.839Z,91.6
2017-10-22T05:39:26.215Z,91.6
2017-10-22T05:40:28.595Z,91.6
2017-10-22T05:41:30.959Z,91.6
2017-10-22T05:42:33.697Z,91.6
2017-10-22T05:43:36.412Z,91.4
2017-10-22T05:44:38.794Z,91.4
2017-10-22T05:45:41.520Z,91.5
2017-10-22T05:46:43.888Z,91.4
2017-10-22T05:47:46.268Z,91.4
2017-10-22T05:48:48.648Z,91.4
2017-10-22T05:49:51.014Z,91.5
2017-10-22T05:50:53.403Z,91.5
2017-10-22T05:51:55.759Z,91.5
2017-10-22T05:52:58.132Z,91.5
2017-10-22T05:54:00.513Z,91.5
2017-10-22T05:55:02.883Z,91.5
2017-10-22T05:56:05.256Z,91.4
2017-10-22T05:57:07.636Z,91.5
2017-10-22T05:58:10.005Z,91.4
2017-10-22T05:59:12.383Z,91.4
2017-10-22T06:00:14.756Z,91.4
2017-10-22T06:01:17.114Z,91.4
2017-10-22T06:02:19.493Z,91.4
2017-10-22T06:03:21.861Z,91.5
2017-10-22T06:04:24.588Z,91.5
2017-10-22T06:05:26.968Z,91.5
2017-10-22T06:06:29.337Z,91.4
2017-10-22T06:07:32.068Z,91.4
2017-10-22T06:08:34.455Z,91.4
2017-10-22T06:09:36.818Z,91.4
2017-10-22T06:10:39.198Z,91.4
2017-10-22T06:11:41.578Z,91.4
2017-10-22T06:12:44.303Z,91.4
2017-10-22T06:13:46.671Z,91.4
2017-10-22T06:14:49.050Z,91.4
2017-10-22T06:15:51.427Z,91.5
2017-10-22T06:16:54.179Z,91.5
2017-10-22T06:17:56.543Z,91.5
2017-10-22T06:18:58.921Z,91.5
2017-10-22T06:20:01.303Z,91.6
2017-10-22T06:21:03.679Z,91.6
2017-10-22T06:22:06.388Z,91.5
2017-10-22T06:23:08.761Z,91.6
2017-10-22T06:24:11.121Z,91.6
2017-10-22T06:25:13.867Z,91.6
2017-10-22T06:26:16.240Z,91.6
2017-10-22T06:27:18.608Z,91.6
2017-10-22T06:28:20.986Z,91.6
2017-10-22T06:29:23.356Z,91.7
2017-10-22T06:30:25.734Z,91.7
2017-10-22T06:31:28.112Z,91.8
2017-10-22T06:32:30.478Z,91.8
2017-10-22T06:33:32.850Z,91.8
2017-10-22T06:34:35.237Z,91.8
2017-10-22T06:35:37.598Z,91.8
2017-10-22T06:36:39.981Z,91.8
2017-10-22T06:37:42.347Z,91.8
2017-10-22T06:38:44.716Z,91.9
2017-10-22T06:39:47.106Z,91.9
2017-10-22T06:40:49.473Z,92
2017-10-22T06:41:51.834Z,92
2017-10-22T06:42:54.235Z,92.1
2017-10-22T06:43:56.604Z,92.1
2017-10-22T06:44:58.981Z,92.1
2017-10-22T06:46:01.365Z,92.1
2017-10-22T06:47:03.733Z,92.1
2017-10-22T06:48:06.115Z,92
2017-10-22T06:49:08.478Z,92.1
2017-10-22T06:50:11.203Z,92
2017-10-22T06:51:13.576Z,92
2017-10-22T06:52:15.943Z,91.9
2017-10-22T06:53:18.313Z,92
2017-10-22T06:54:20.689Z,92
2017-10-22T06:55:23.063Z,92
2017-10-22T06:56:25.443Z,92
2017-10-22T06:57:28.166Z,92.1
2017-10-22T06:58:30.537Z,92.1
2017-10-22T06:59:32.914Z,92.2
2017-10-22T07:00:35.624Z,92.3
2017-10-22T07:01:37.991Z,92.3
2017-10-22T07:02:40.371Z,92.3
2017-10-22T07:03:42.742Z,92.4
2017-10-22T07:04:45.478Z,92.4
2017-10-22T07:05:47.853Z,92.3
2017-10-22T07:06:50.214Z,92.3
2017-10-22T07:07:52.617Z,92.3
2017-10-22T07:08:55.038Z,92.4
2017-10-22T07:09:57.460Z,92.5
2017-10-22T07:11:00.268Z,92.6
2017-10-22T07:12:02.699Z,92.5
2017-10-22T07:13:05.123Z,92.4
2017-10-22T07:14:07.563Z,92.3
2017-10-22T07:15:09.982Z,92.4
2017-10-22T07:16:12.400Z,92.5
2017-10-22T07:17:14.835Z,92.5
2017-10-22T07:18:17.256Z,92.5
2017-10-22T07:19:19.691Z,92.5
2017-10-22T07:20:22.120Z,92.4
2017-10-22T07:21:24.546Z,92.4
2017-10-22T07:22:26.995Z,92.2
2017-10-22T07:23:29.431Z,92.3
2017-10-22T07:24:32.202Z,92.4
2017-10-22T07:25:34.636Z,92.3
2017-10-22T07:26:37.072Z,92.3
2017-10-22T07:27:39.551Z,92.3
2017-10-22T07:28:42.094Z,92.3
2017-10-22T07:29:44.714Z,92.3
2017-10-22T07:30:47.195Z,92.4
2017-10-22T07:31:50.007Z,92.4
2017-10-22T07:32:52.443Z,92.4
2017-10-22T07:33:54.873Z,92.4
2017-10-22T07:34:57.336Z,92.3
2017-10-22T07:35:59.799Z,92.3
2017-10-22T07:37:02.652Z,92.4
2017-10-22T07:38:05.097Z,92.4
2017-10-22T07:39:07.608Z,92.3
2017-10-22T07:40:10.046Z,92.3
2017-10-22T07:41:12.600Z,92.3
2017-10-22T07:42:15.099Z,92.4
2017-10-22T07:43:17.610Z,92.3
2017-10-22T07:44:20.405Z,92.4
2017-10-22T07:45:22.848Z,92.3
2017-10-22T07:46:25.299Z,92.4
2017-10-22T07:47:27.743Z,92.4
2017-10-22T07:48:30.188Z,92.4
2017-10-22T07:49:32.618Z,92.4
2017-10-22T07:50:35.055Z,92.4
2017-10-22T07:51:37.500Z,92.3
2017-10-22T07:52:39.937Z,92.4
2017-10-22T07:53:42.379Z,92.3
2017-10-22T07:54:44.821Z,92.4
2017-10-22T07:55:47.255Z,92.5
2017-10-22T07:56:49.717Z,92.4
2017-10-22T07:57:52.146Z,92.4
2017-10-22T07:58:54.591Z,92.4
2017-10-22T07:59:57.028Z,92.4
2017-10-22T08:00:59.455Z,92.4
2017-10-22T08:02:01.882Z,92.4
2017-10-22T08:03:04.326Z,92.4
2017-10-22T08:04:06.742Z,92.3
2017-10-22T08:05:09.549Z,92.4
2017-10-22T08:06:11.983Z,92.5
2017-10-22T08:07:14.405Z,92.4
2017-10-22T08:08:16.833Z,92.3
2017-10-22T08:09:19.272Z,92.4
2017-10-22T08:10:21.711Z,92.4
2017-10-22T08:11:24.293Z,92.4
2017-10-22T08:12:26.758Z,92.3
2017-10-22T08:13:29.192Z,92.2
2017-10-22T08:14:31.607Z,92.2
2017-10-22T08:15:34.040Z,92.4
2017-10-22T08:16:36.472Z,92.3
2017-10-22T08:17:38.913Z,92.4
2017-10-22T08:18:41.352Z,92.4
2017-10-22T08:19:43.775Z,92.4
2017-10-22T08:20:46.208Z,92.3
2017-10-22T08:21:48.651Z,92.3
2017-10-22T08:22:51.089Z,92.2
2017-10-22T08:23:53.524Z,92.4
2017-10-22T08:24:55.955Z,92.5
2017-10-22T08:25:58.384Z,92.5
2017-10-22T08:27:00.824Z,92.5
2017-10-22T08:28:03.253Z,92.5
2017-10-22T08:29:05.683Z,92.6
2017-10-22T08:30:08.116Z,92.5
2017-10-22T08:31:10.549Z,92.5
2017-10-22T08:32:13.355Z,92.5
2017-10-22T08:33:15.766Z,92.5
2017-10-22T08:34:18.211Z,92.6
2017-10-22T08:35:20.653Z,92.6
2017-10-22T08:36:23.082Z,92.7
2017-10-22T08:37:25.523Z,92.5
2017-10-22T08:38:27.950Z,92.3
2017-10-22T08:39:30.369Z,92.3
2017-10-22T08:40:32.821Z,92.3
2017-10-22T08:41:35.249Z,92.4
2017-10-22T08:42:37.688Z,92.4
2017-10-22T08:43:40.135Z,92.4
2017-10-22T08:44:42.581Z,92.5
2017-10-22T08:45:44.999Z,92.5
2017-10-22T08:46:48.166Z,92.3
2017-10-22T08:47:50.604Z,92.4
2017-10-22T08:48:53.035Z,92.5
2017-10-22T08:49:55.477Z,92.5
2017-10-22T08:50:57.898Z,92.5
2017-10-22T08:52:00.331Z,92.5
2017-10-22T08:53:03.119Z,92.4
2017-10-22T08:54:05.538Z,92.5
2017-10-22T08:55:07.968Z,92.3
2017-10-22T08:56:10.401Z,92.2
2017-10-22T08:57:13.179Z,92.1
2017-10-22T08:58:15.601Z,92.1
2017-10-22T08:59:18.284Z,92.1
2017-10-22T09:00:20.997Z,92.1
2017-10-22T09:01:23.432Z,92.2
2017-10-22T09:02:25.863Z,92.3
2017-10-22T09:03:28.296Z,92.4
2017-10-22T09:04:30.748Z,92.4
2017-10-22T09:05:33.525Z,92.4
2017-10-22T09:06:35.950Z,92.4
2017-10-22T09:07:38.473Z,92.6
2017-10-22T09:08:40.904Z,92.7
2017-10-22T09:09:43.688Z,93
2017-10-22T09:10:46.113Z,93.3
2017-10-22T09:11:48.905Z,93.9
2017-10-22T09:12:51.339Z,94
2017-10-22T09:13:53.759Z,94
2017-10-22T09:14:56.201Z,94.1
2017-10-22T09:15:58.636Z,94.3
2017-10-22T09:17:01.077Z,94.5
2017-10-22T09:18:03.509Z,94.7
2017-10-22T09:19:05.934Z,94.9
2017-10-22T09:20:08.367Z,95.2
2017-10-22T09:21:10.810Z,95.3
2017-10-22T09:22:13.238Z,95.6
2017-10-22T09:23:15.668Z,95.6
2017-10-22T09:24:18.107Z,95.4
2017-10-22T09:25:20.544Z,95.5
2017-10-22T09:26:22.984Z,95.7
2017-10-22T09:27:25.421Z,95.6
2017-10-22T09:28:27.851Z,95.9
2017-10-22T09:29:30.290Z,96.2
2017-10-22T09:30:32.720Z,97
2017-10-22T09:31:35.168Z,97.9
2017-10-22T09:32:37.610Z,98.6
2017-10-22T09:33:40.044Z,99.2
2017-10-22T09:34:42.480Z,99.9
2017-10-22T09:35:44.928Z,99.9
2017-10-22T09:36:47.353Z,99.9
2017-10-22T09:37:49.788Z,99.9
2017-10-22T09:38:52.219Z,99.9
2017-10-22T09:39:55.014Z,99.9
2017-10-22T09:40:57.487Z,99.9
2017-10-22T09:41:59.946Z,99.9
2017-10-22T09:43:02.391Z,99.9
2017-10-22T09:44:04.836Z,99.9
2017-10-22T09:45:07.712Z,99.9
2017-10-22T09:46:10.137Z,99.9
2017-10-22T09:47:12.596Z,99.9
2017-10-22T09:48:15.066Z,99.9
2017-10-22T09:49:17.515Z,99.9
2017-10-22T09:50:19.989Z,99.9
2017-10-22T09:51:22.437Z,99.9
2017-10-22T09:52:24.935Z,99.9
2017-10-22T09:53:27.392Z,99.9
2017-10-22T09:54:29.857Z,99.9
2017-10-22T09:55:32.311Z,99.3
2017-10-22T09:56:34.799Z,98.2
2017-10-22T09:57:37.613Z,98.2
2017-10-22T09:58:40.069Z,99.3
2017-10-22T09:59:42.612Z,99.9
2017-10-22T10:00:45.080Z,99.9
2017-10-22T10:01:47.684Z,99.9
2017-10-22T10:02:50.486Z,99.9
2017-10-22T10:03:52.946Z,99.6
2017-10-22T10:04:55.497Z,99.8
2017-10-22T10:05:58.318Z,98.8
2017-10-22T10:07:00.772Z,98
2017-10-22T10:08:03.234Z,96.7
2017-10-22T10:09:05.700Z,96.5
2017-10-22T10:10:08.231Z,96.2
2017-10-22T10:11:10.698Z,95.9
2017-10-22T10:12:13.156Z,94.6
2017-10-22T10:13:15.617Z,94.4
2017-10-22T10:14:18.074Z,93
2017-10-22T10:15:20.528Z,92.8
2017-10-22T10:16:23.339Z,93.5
2017-10-22T10:17:25.805Z,93.5
2017-10-22T10:18:28.262Z,94
2017-10-22T10:19:30.727Z,95.4
2017-10-22T10:20:33.539Z,95.1
2017-10-22T10:21:35.988Z,95.4
2017-10-22T10:22:38.451Z,95.5
2017-10-22T10:23:40.910Z,96.5
2017-10-22T10:24:43.368Z,97
2017-10-22T10:25:46.206Z,97
2017-10-22T10:26:49.025Z,96.1
2017-10-22T10:27:51.473Z,96.7
2017-10-22T10:28:54.301Z,97.1
2017-10-22T10:29:56.758Z,97.2
2017-10-22T10:30:59.200Z,96.8
2017-10-22T10:32:02.049Z,95.2
2017-10-22T10:33:04.504Z,94.8
2017-10-22T10:34:06.963Z,94.5
2017-10-22T10:35:09.432Z,93.9
2017-10-22T10:36:11.890Z,92.6
2017-10-22T10:37:14.345Z,92.1
2017-10-22T10:38:16.809Z,91.3
2017-10-22T10:39:19.266Z,91.2
2017-10-22T10:40:21.727Z,90.5
2017-10-22T10:41:24.194Z,90.7
2017-10-22T10:42:26.647Z,92
2017-10-22T10:43:29.116Z,92.7
2017-10-22T10:44:31.565Z,92.1
2017-10-22T10:45:34.018Z,92.5
2017-10-22T10:46:36.485Z,94
2017-10-22T10:47:38.952Z,95.6
2017-10-22T10:48:41.405Z,96.3
2017-10-22T10:49:43.868Z,96.5
2017-10-22T10:50:46.308Z,95.1
2017-10-22T10:51:48.761Z,93.2
2017-10-22T10:52:51.200Z,92.5
2017-10-22T10:53:53.645Z,92.1
2017-10-22T10:54:56.106Z,91
2017-10-22T10:55:58.569Z,90.6
2017-10-22T10:57:01.025Z,90.3
2017-10-22T10:58:03.489Z,90.4
2017-10-22T10:59:05.939Z,90.5
2017-10-22T11:00:08.379Z,89.9
2017-10-22T11:01:10.827Z,90
2017-10-22T11:02:13.278Z,90.1
2017-10-22T11:03:15.726Z,90.5
2017-10-22T11:04:18.182Z,90.9
2017-10-22T11:05:20.633Z,91.4
2017-10-22T11:06:23.093Z,91.2
2017-10-22T11:07:25.555Z,91.1
2017-10-22T11:08:28.362Z,91.2
2017-10-22T11:09:30.836Z,91.5
2017-10-22T11:10:33.619Z,91.8
2017-10-22T11:11:36.081Z,91.9
2017-10-22T11:12:38.912Z,92.1
2017-10-22T11:13:41.360Z,92.3
2017-10-22T11:14:43.809Z,92.6
2017-10-22T11:15:46.244Z,92.4
2017-10-22T11:16:48.678Z,92.6
2017-10-22T11:17:51.365Z,92.8
2017-10-22T11:18:53.829Z,93.1
2017-10-22T11:19:56.286Z,93.7
2017-10-22T11:20:59.083Z,93.7
2017-10-22T11:22:01.887Z,93.7
2017-10-22T11:23:04.332Z,93.6
2017-10-22T11:24:06.775Z,93.2
2017-10-22T11:25:09.560Z,93.1
2017-10-22T11:26:11.994Z,93
2017-10-22T11:27:14.805Z,92.4
2017-10-22T11:28:17.238Z,92.3
2017-10-22T11:29:20.041Z,91.9
2017-10-22T11:30:22.475Z,91.8
2017-10-22T11:31:24.908Z,91.6
2017-10-22T11:32:27.356Z,91.6
2017-10-22T11:33:29.798Z,91.8
2017-10-22T11:34:32.230Z,91.9
2017-10-22T11:35:34.677Z,92
2017-10-22T11:36:37.119Z,91.9
2017-10-22T11:37:39.900Z,92.2
2017-10-22T11:38:42.345Z,92.4
2017-10-22T11:39:44.783Z,92.5
2017-10-22T11:40:47.597Z,92.4
2017-10-22T11:41:50.028Z,92.5
2017-10-22T11:42:52.476Z,92.9
2017-10-22T11:43:54.907Z,93.2
2017-10-22T11:44:57.355Z,93.3
2017-10-22T11:45:59.796Z,93.3
2017-10-22T11:47:02.245Z,93.5
2017-10-22T11:48:04.680Z,93.4
2017-10-22T11:49:07.130Z,93.3
2017-10-22T11:50:09.919Z,93.4
2017-10-22T11:51:12.351Z,93.3
2017-10-22T11:52:14.781Z,93
2017-10-22T11:53:17.221Z,92.9
2017-10-22T11:54:20.016Z,92.6
2017-10-22T11:55:22.449Z,92.3
2017-10-22T11:56:24.881Z,92.3
2017-10-22T11:57:27.319Z,92.3
2017-10-22T11:58:29.757Z,92.2
2017-10-22T11:59:32.194Z,92.2
2017-10-22T12:00:34.626Z,92.3
2017-10-22T12:01:37.076Z,91.9
2017-10-22T12:02:39.506Z,91.8
2017-10-22T12:03:41.946Z,91.8
2017-10-22T12:04:44.382Z,91.7
2017-10-22T12:05:46.824Z,91.5
2017-10-22T12:06:49.265Z,91.1
2017-10-22T12:07:57.246Z,90.9
2017-10-22T12:09:00.044Z,91.2
2017-10-22T12:10:02.466Z,91.1
2017-10-22T12:11:05.269Z,91.1
2017-10-22T12:12:07.702Z,91.2
2017-10-22T12:13:10.134Z,91.4
2017-10-22T12:14:12.574Z,91.5
2017-10-22T12:15:15.017Z,91.4
2017-10-22T12:16:17.434Z,91.5
2017-10-22T12:17:19.887Z,91.4
2017-10-22T12:18:22.311Z,91.4
2017-10-22T12:19:24.742Z,91.4
2017-10-22T12:20:27.176Z,91.1
2017-10-22T12:21:29.620Z,91.4
2017-10-22T12:22:32.405Z,91.6
2017-10-22T12:23:34.854Z,92
2017-10-22T12:24:37.268Z,92.3
2017-10-22T12:25:40.082Z,92.3
2017-10-22T12:26:42.513Z,92
2017-10-22T12:27:44.949Z,92
2017-10-22T12:28:47.383Z,92.1
2017-10-22T12:29:49.828Z,91.9
2017-10-22T12:30:52.278Z,91.8
2017-10-22T12:31:54.701Z,91.8
2017-10-22T12:32:57.127Z,91.8
2017-10-22T12:33:59.577Z,91.6
2017-10-22T12:35:02.006Z,91.4
2017-10-22T12:36:04.437Z,91.3
2017-10-22T12:37:06.865Z,91.5
2017-10-22T12:38:09.662Z,91.7
2017-10-22T12:39:12.103Z,92
2017-10-22T12:40:14.553Z,91.8
2017-10-22T12:41:16.987Z,91.8
2017-10-22T12:42:19.413Z,91.9
2017-10-22T12:43:21.858Z,91.9
2017-10-22T12:44:24.281Z,91.9
2017-10-22T12:45:26.706Z,91.8
2017-10-22T12:46:29.144Z,91.7
2017-10-22T12:47:31.573Z,91.7
2017-10-22T12:48:34.003Z,91.8
2017-10-22T12:49:36.450Z,91.9
2017-10-22T12:50:38.891Z,92.1
2017-10-22T12:51:41.323Z,92
2017-10-22T12:52:43.759Z,91.9
2017-10-22T12:53:46.192Z,92
2017-10-22T12:54:48.627Z,92
2017-10-22T12:55:51.057Z,91.8
2017-10-22T12:56:53.494Z,91.7
2017-10-22T12:57:55.947Z,91.6
2017-10-22T12:58:58.388Z,91.5
2017-10-22T13:00:00.824Z,91.5
2017-10-22T13:01:03.250Z,91.6
2017-10-22T13:02:05.670Z,91.6
2017-10-22T13:03:08.110Z,91.8
2017-10-22T13:04:10.540Z,92.1
2017-10-22T13:05:13.318Z,92.1
2017-10-22T13:06:15.750Z,92.3
2017-10-22T13:07:18.182Z,92.2
2017-10-22T13:08:20.962Z,92.2
2017-10-22T13:09:23.392Z,92.1
2017-10-22T13:10:25.822Z,92.2
2017-10-22T13:11:28.254Z,92.2
2017-10-22T13:12:30.688Z,92.1
2017-10-22T13:13:33.499Z,91.6
2017-10-22T13:14:35.920Z,91.6
2017-10-22T13:15:38.361Z,91.7
2017-10-22T13:16:40.796Z,91.8
2017-10-22T13:17:43.226Z,91.9
2017-10-22T13:18:45.668Z,92.2
2017-10-22T13:19:48.109Z,92.3
2017-10-22T13:20:50.526Z,92.3
2017-10-22T13:21:52.974Z,92.4
2017-10-22T13:22:55.390Z,92.4
2017-10-22T13:23:58.196Z,92.4
2017-10-22T13:25:00.627Z,92.5
2017-10-22T13:26:03.046Z,92.7
2017-10-22T13:27:05.481Z,92.7
2017-10-22T13:28:07.915Z,92.7
2017-10-22T13:29:10.351Z,92.7
2017-10-22T13:30:12.798Z,92.6
2017-10-22T13:31:15.226Z,92.4
2017-10-22T13:32:17.651Z,92.5
2017-10-22T13:33:20.096Z,92.5
2017-10-22T13:34:22.874Z,92.3
2017-10-22T13:35:25.298Z,92.6
2017-10-22T13:36:27.726Z,92.9
2017-10-22T13:37:30.508Z,93
2017-10-22T13:38:32.927Z,92.9
2017-10-22T13:39:35.361Z,92.9
2017-10-22T13:40:37.788Z,92.9
2017-10-22T13:41:40.225Z,92.7
2017-10-22T13:42:42.650Z,92.9
2017-10-22T13:43:45.082Z,92.8
2017-10-22T13:44:47.510Z,92.7
2017-10-22T13:45:49.962Z,92.4
2017-10-22T13:46:52.749Z,92.3
2017-10-22T13:47:55.172Z,92.4
2017-10-22T13:48:57.607Z,92.5
2017-10-22T13:50:00.041Z,92.6
2017-10-22T13:51:02.831Z,92.7
2017-10-22T13:52:05.262Z,92.3
2017-10-22T13:53:07.695Z,92.1
2017-10-22T13:54:10.125Z,92.1
2017-10-22T13:55:12.563Z,92
2017-10-22T13:56:15.001Z,91.9